createdAt,value
2023-03-24T00:00:27.286Z,15.20
2023-03-24T00:01:27.309Z,14.70
2023-03-24T00:02:27.325Z,15.10
2023-03-24T00:03:27.420Z,15.20
2023-03-24T00:04:27.266Z,14.90
2023-03-24T00:05:27.279Z,14.40
2023-03-24T00:06:27.262Z,15.00
2023-03-24T00:07:27.267Z,15.10
2023-03-24T00:08:27.259Z,14.60
2023-03-24T00:09:27.257Z,14.70
2023-03-24T00:10:27.253Z,14.90
2023-03-24T00:11:27.250Z,14.70
2023-03-24T00:12:27.247Z,14.90
2023-03-24T00:13:27.249Z,14.80
2023-03-24T00:14:27.246Z,14.40
2023-03-24T00:15:27.246Z,14.60
2023-03-24T00:16:27.272Z,14.60
2023-03-24T00:17:27.242Z,14.40
2023-03-24T00:18:27.234Z,14.90
2023-03-24T00:19:27.241Z,14.40
2023-03-24T00:20:27.253Z,14.70
2023-03-24T00:21:27.327Z,14.90
2023-03-24T00:22:27.235Z,14.20
2023-03-24T00:23:27.230Z,15.00
2023-03-24T00:24:27.233Z,14.50
2023-03-24T00:25:27.552Z,14.60
2023-03-24T00:26:27.225Z,14.60
2023-03-24T00:27:27.224Z,14.90
2023-03-24T00:28:27.227Z,14.80
2023-03-24T00:29:27.221Z,14.60
2023-03-24T00:30:27.235Z,14.90
2023-03-24T00:31:27.293Z,15.00
2023-03-24T00:32:27.261Z,15.10
2023-03-24T00:33:27.219Z,14.60
2023-03-24T00:34:27.216Z,14.90
2023-03-24T00:35:27.259Z,15.10
2023-03-24T00:36:27.209Z,15.00
2023-03-24T00:37:27.233Z,14.40
2023-03-24T00:38:27.212Z,14.20
2023-03-24T00:39:27.239Z,14.90
2023-03-24T00:40:27.204Z,14.70
2023-03-24T00:41:27.483Z,14.90
2023-03-24T00:42:27.203Z,15.10
2023-03-24T00:43:27.206Z,15.00
2023-03-24T00:44:27.204Z,15.30
2023-03-24T00:45:27.204Z,15.20
2023-03-24T00:46:27.216Z,14.90
2023-03-24T00:47:27.248Z,15.20
2023-03-24T00:48:27.199Z,15.20
2023-03-24T00:49:27.202Z,15.30
2023-03-24T00:50:27.698Z,15.10
2023-03-24T00:51:27.192Z,14.50
2023-03-24T00:52:27.190Z,14.20
2023-03-24T00:53:27.215Z,14.60
2023-03-24T00:54:27.185Z,14.40
2023-03-24T00:55:27.192Z,14.50
2023-03-24T00:56:27.269Z,14.20
2023-03-24T00:57:27.187Z,14.40
2023-03-24T00:58:27.180Z,14.50
2023-03-24T00:59:27.180Z,14.20
2023-03-24T01:00:27.304Z,13.80
2023-03-24T01:01:27.178Z,14.00
2023-03-24T01:02:27.310Z,14.00
2023-03-24T01:03:27.179Z,14.10
2023-03-24T01:04:27.171Z,13.80
2023-03-24T01:05:27.164Z,14.10
2023-03-24T01:06:27.178Z,14.20
2023-03-24T01:07:27.159Z,14.00
2023-03-24T01:08:27.164Z,14.00
2023-03-24T01:09:27.183Z,13.60
2023-03-24T01:10:27.158Z,13.50
2023-03-24T01:11:27.152Z,13.70
2023-03-24T01:12:27.157Z,13.50
2023-03-24T01:13:27.156Z,13.90
2023-03-24T01:14:27.152Z,13.90
2023-03-24T01:15:27.149Z,14.00
2023-03-24T01:16:27.188Z,14.00
2023-03-24T01:17:27.169Z,13.90
2023-03-24T01:18:27.149Z,14.20
2023-03-24T01:19:27.143Z,14.00
2023-03-24T01:20:27.139Z,13.90
2023-03-24T01:21:27.133Z,13.80
2023-03-24T01:22:27.142Z,13.80
2023-03-24T01:23:27.141Z,13.50
2023-03-24T01:24:27.135Z,14.00
2023-03-24T01:25:27.180Z,14.10
2023-03-24T01:26:27.129Z,13.80
2023-03-24T01:27:27.129Z,13.70
2023-03-24T01:28:27.127Z,14.20
2023-03-24T01:29:27.124Z,13.80
2023-03-24T01:30:27.127Z,13.80
2023-03-24T01:31:27.140Z,13.90
2023-03-24T01:32:27.173Z,13.90
2023-03-24T01:33:27.118Z,13.60
2023-03-24T01:34:27.122Z,13.70
2023-03-24T01:35:29.108Z,13.70
2023-03-24T01:36:27.124Z,14.00
2023-03-24T01:37:27.147Z,13.70
2023-03-24T01:38:27.115Z,13.60
2023-03-24T01:39:27.115Z,14.00
2023-03-24T01:40:27.113Z,13.80
2023-03-24T01:41:27.172Z,13.70
2023-03-24T01:42:27.110Z,13.80
2023-03-24T01:43:27.111Z,13.90
2023-03-24T01:44:27.105Z,13.90
2023-03-24T01:45:27.099Z,14.00
2023-03-24T01:46:27.136Z,14.00
2023-03-24T01:47:27.125Z,13.50
2023-03-24T01:48:27.098Z,13.50
2023-03-24T01:49:27.097Z,13.30
2023-03-24T01:50:27.096Z,13.30
2023-03-24T01:51:27.095Z,13.70
2023-03-24T01:52:27.099Z,13.30
2023-03-24T01:53:27.088Z,13.50
2023-03-24T01:54:27.091Z,13.80
2023-03-24T01:55:27.086Z,13.10
2023-03-24T01:56:27.115Z,13.30
2023-03-24T01:57:27.105Z,13.00
2023-03-24T01:58:27.089Z,13.20
2023-03-24T01:59:27.079Z,13.40
2023-03-24T02:00:27.081Z,13.40
2023-03-24T02:01:27.129Z,13.40
2023-03-24T02:02:27.115Z,13.00
2023-03-24T02:03:27.071Z,13.10
2023-03-24T02:04:27.125Z,13.40
2023-03-24T02:05:27.072Z,13.10
2023-03-24T02:06:27.079Z,13.00
2023-03-24T02:07:27.070Z,13.00
2023-03-24T02:08:27.069Z,13.40
2023-03-24T02:09:27.070Z,13.50
2023-03-24T02:10:27.066Z,13.30
2023-03-24T02:11:27.065Z,13.00
2023-03-24T02:12:27.065Z,13.50
2023-03-24T02:13:27.097Z,13.30
2023-03-24T02:14:27.060Z,13.40
2023-03-24T02:15:27.086Z,13.70
2023-03-24T02:16:27.114Z,14.00
2023-03-24T02:17:27.066Z,13.40
2023-03-24T02:18:27.055Z,13.70
2023-03-24T02:19:27.057Z,13.50
2023-03-24T02:20:27.053Z,13.50
2023-03-24T02:21:27.051Z,13.80
2023-03-24T02:22:27.054Z,13.80
2023-03-24T02:23:27.048Z,13.50
2023-03-24T02:24:27.059Z,13.60
2023-03-24T02:25:27.048Z,13.70
2023-03-24T02:26:27.047Z,13.30
2023-03-24T02:27:27.053Z,13.00
2023-03-24T02:28:27.049Z,13.10
2023-03-24T02:29:27.058Z,13.20
2023-03-24T02:30:27.041Z,13.00
2023-03-24T02:31:27.074Z,12.90
2023-03-24T02:32:27.070Z,13.20
2023-03-24T02:33:27.033Z,13.00
2023-03-24T02:34:27.035Z,12.90
2023-03-24T02:35:27.028Z,13.10
2023-03-24T02:36:27.033Z,13.40
2023-03-24T02:37:27.029Z,13.10
2023-03-24T02:38:27.033Z,13.60
2023-03-24T02:39:27.023Z,13.20
2023-03-24T02:40:27.032Z,13.20
2023-03-24T02:41:27.022Z,13.60
2023-03-24T02:42:27.031Z,12.90
2023-03-24T02:43:27.013Z,13.10
2023-03-24T02:44:27.023Z,13.30
2023-03-24T02:45:27.035Z,13.50
2023-03-24T02:46:27.030Z,13.50
2023-03-24T02:47:27.025Z,13.30
2023-03-24T02:48:27.015Z,13.60
2023-03-24T02:49:27.012Z,13.50
2023-03-24T02:50:27.011Z,13.20
2023-03-24T02:51:27.000Z,13.10
2023-03-24T02:52:27.004Z,13.60
2023-03-24T02:53:27.008Z,13.40
2023-03-24T02:54:27.005Z,13.40
2023-03-24T02:55:27.007Z,13.30
2023-03-24T02:56:27.052Z,13.50
2023-03-24T02:57:26.995Z,13.10
2023-03-24T02:58:26.993Z,13.40
2023-03-24T02:59:26.989Z,13.80
2023-03-24T03:00:26.990Z,13.70
2023-03-24T03:01:27.042Z,13.70
2023-03-24T03:02:26.998Z,13.50
2023-03-24T03:03:26.988Z,13.60
2023-03-24T03:04:29.192Z,13.90
2023-03-24T03:05:26.988Z,14.10
2023-03-24T03:06:26.979Z,13.70
2023-03-24T03:07:26.979Z,14.00
2023-03-24T03:08:26.987Z,14.60
2023-03-24T03:09:26.976Z,14.60
2023-03-24T03:10:26.974Z,14.70
2023-03-24T03:11:26.972Z,15.40
2023-03-24T03:12:26.973Z,18.90
2023-03-24T03:13:26.969Z,25.80
2023-03-24T03:14:26.996Z,30.00
2023-03-24T03:15:26.962Z,33.00
2023-03-24T03:16:26.967Z,23.50
2023-03-24T03:17:27.028Z,16.30
2023-03-24T03:18:26.964Z,16.30
2023-03-24T03:19:26.956Z,16.40
2023-03-24T03:20:26.971Z,16.00
2023-03-24T03:21:26.954Z,15.80
2023-03-24T03:22:26.961Z,15.60
2023-03-24T03:23:26.951Z,15.50
2023-03-24T03:24:27.578Z,16.40
2023-03-24T03:25:26.965Z,15.90
2023-03-24T03:26:26.962Z,16.10
2023-03-24T03:27:26.953Z,15.20
2023-03-24T03:28:26.954Z,16.30
2023-03-24T03:29:26.948Z,16.00
2023-03-24T03:30:26.951Z,16.00
2023-03-24T03:31:26.966Z,16.00
2023-03-24T03:32:26.947Z,15.80
2023-03-24T03:33:26.968Z,16.40
2023-03-24T03:34:26.945Z,16.40
2023-03-24T03:35:26.939Z,16.60
2023-03-24T03:36:26.943Z,16.80
2023-03-24T03:37:26.936Z,16.60
2023-03-24T03:38:26.944Z,16.10
2023-03-24T03:39:26.937Z,16.70
2023-03-24T03:40:26.934Z,16.50
2023-03-24T03:41:26.933Z,17.20
2023-03-24T03:42:26.929Z,16.30
2023-03-24T03:43:26.934Z,16.60
2023-03-24T03:44:26.927Z,16.70
2023-03-24T03:45:26.927Z,16.80
2023-03-24T03:46:26.968Z,16.60
2023-03-24T03:47:26.968Z,17.10
2023-03-24T03:48:26.926Z,16.90
2023-03-24T03:49:26.958Z,16.70
2023-03-24T03:50:26.928Z,17.20
2023-03-24T03:51:26.915Z,16.90
2023-03-24T03:52:26.923Z,17.00
2023-03-24T03:53:26.926Z,16.60
2023-03-24T03:54:26.915Z,16.90
2023-03-24T03:55:26.913Z,16.50
2023-03-24T03:56:26.955Z,16.50
2023-03-24T03:57:26.911Z,16.50
2023-03-24T03:58:26.919Z,16.80
2023-03-24T03:59:26.904Z,17.00
2023-03-24T04:00:26.906Z,15.80
2023-03-24T04:01:26.928Z,16.60
2023-03-24T04:02:26.986Z,16.40
2023-03-24T04:03:26.967Z,16.50
2023-03-24T04:04:26.896Z,16.10
2023-03-24T04:05:26.915Z,15.80
2023-03-24T04:06:26.894Z,15.80
2023-03-24T04:07:26.883Z,15.90
2023-03-24T04:08:27.219Z,15.70
2023-03-24T04:09:26.886Z,15.80
2023-03-24T04:10:26.897Z,15.50
2023-03-24T04:11:26.885Z,15.70
2023-03-24T04:12:26.886Z,15.60
2023-03-24T04:13:26.876Z,15.40
2023-03-24T04:14:26.884Z,16.10
2023-03-24T04:15:26.875Z,15.90
2023-03-24T04:16:26.922Z,16.30
2023-03-24T04:17:26.943Z,15.90
2023-03-24T04:18:26.890Z,15.70
2023-03-24T04:19:26.871Z,15.80
2023-03-24T04:20:26.865Z,16.00
2023-03-24T04:21:26.889Z,16.20
2023-03-24T04:22:26.890Z,15.60
2023-03-24T04:23:26.858Z,16.20
2023-03-24T04:24:26.884Z,16.10
2023-03-24T04:25:26.867Z,16.10
2023-03-24T04:26:26.863Z,16.00
2023-03-24T04:27:26.866Z,16.00
2023-03-24T04:28:26.856Z,15.50
2023-03-24T04:29:26.857Z,15.50
2023-03-24T04:30:26.860Z,15.20
2023-03-24T04:31:26.911Z,14.80
2023-03-24T04:32:26.863Z,15.10
2023-03-24T04:33:26.841Z,15.00
2023-03-24T04:34:26.850Z,15.10
2023-03-24T04:35:26.839Z,15.10
2023-03-24T04:36:26.844Z,15.00
2023-03-24T04:37:26.859Z,14.70
2023-03-24T04:38:26.836Z,14.60
2023-03-24T04:39:26.838Z,14.60
2023-03-24T04:40:26.836Z,14.70
2023-03-24T04:41:26.827Z,14.40
2023-03-24T04:42:26.828Z,14.80
2023-03-24T04:43:26.852Z,15.00
2023-03-24T04:44:26.828Z,14.70
2023-03-24T04:45:26.863Z,15.10
2023-03-24T04:46:26.873Z,15.10
2023-03-24T04:47:26.870Z,14.50
2023-03-24T04:48:26.818Z,14.80
2023-03-24T04:49:26.825Z,14.70
2023-03-24T04:50:26.823Z,15.30
2023-03-24T04:51:26.812Z,14.60
2023-03-24T04:52:26.821Z,14.90
2023-03-24T04:53:26.835Z,14.80
2023-03-24T04:54:26.810Z,14.30
2023-03-24T04:55:26.810Z,15.10
2023-03-24T04:56:26.828Z,14.40
2023-03-24T04:57:26.809Z,14.80
2023-03-24T04:58:26.810Z,15.10
2023-03-24T04:59:26.803Z,14.80
2023-03-24T05:00:26.803Z,14.80
2023-03-24T05:01:26.830Z,14.70
2023-03-24T05:02:26.837Z,14.60
2023-03-24T05:03:26.878Z,14.20
2023-03-24T05:04:26.794Z,14.00
2023-03-24T05:05:26.810Z,14.20
2023-03-24T05:06:26.785Z,13.50
2023-03-24T05:07:26.783Z,14.00
2023-03-24T05:08:26.786Z,13.60
2023-03-24T05:09:26.799Z,13.80
2023-03-24T05:10:26.792Z,13.60
2023-03-24T05:11:26.772Z,13.20
2023-03-24T05:12:26.772Z,13.20
2023-03-24T05:13:26.787Z,13.40
2023-03-24T05:14:26.774Z,13.30
2023-03-24T05:15:26.799Z,13.80
2023-03-24T05:16:26.835Z,13.90
2023-03-24T05:17:26.790Z,13.00
2023-03-24T05:18:26.765Z,13.60
2023-03-24T05:19:26.770Z,13.70
2023-03-24T05:20:26.760Z,13.80
2023-03-24T05:21:26.762Z,14.00
2023-03-24T05:22:26.755Z,13.70
2023-03-24T05:23:26.754Z,14.20
2023-03-24T05:24:26.754Z,13.80
2023-03-24T05:25:26.769Z,13.80
2023-03-24T05:26:26.750Z,14.60
2023-03-24T05:27:26.746Z,13.70
2023-03-24T05:28:26.753Z,13.80
2023-03-24T05:29:26.746Z,14.10
2023-03-24T05:30:26.759Z,13.20
2023-03-24T05:31:26.758Z,13.30
2023-03-24T05:32:26.771Z,13.80
2023-03-24T05:33:26.756Z,13.80
2023-03-24T05:34:26.734Z,14.30
2023-03-24T05:35:26.732Z,14.20
2023-03-24T05:36:26.789Z,14.00
2023-03-24T05:37:26.740Z,14.30
2023-03-24T05:38:26.736Z,14.10
2023-03-24T05:39:26.731Z,14.20
2023-03-24T05:40:26.744Z,14.00
2023-03-24T05:41:26.760Z,14.30
2023-03-24T05:42:26.738Z,14.30
2023-03-24T05:43:26.731Z,13.90
2023-03-24T05:44:26.730Z,14.40
2023-03-24T05:45:26.747Z,14.70
2023-03-24T05:46:26.853Z,14.20
2023-03-24T05:47:26.732Z,14.30
2023-03-24T05:48:26.723Z,14.20
2023-03-24T05:49:26.714Z,14.90
2023-03-24T05:50:26.708Z,15.00
2023-03-24T05:51:26.713Z,14.30
2023-03-24T05:52:28.785Z,14.40
2023-03-24T05:53:26.709Z,14.80
2023-03-24T05:54:26.709Z,14.60
2023-03-24T05:55:26.705Z,14.90
2023-03-24T05:56:26.706Z,14.10
2023-03-24T05:57:26.721Z,13.50
2023-03-24T05:58:26.700Z,14.10
2023-03-24T05:59:26.700Z,14.30
2023-03-24T06:00:26.706Z,13.80
2023-03-24T06:01:26.698Z,14.20
2023-03-24T06:02:26.763Z,14.00
2023-03-24T06:03:26.865Z,14.40
2023-03-24T06:04:26.729Z,14.20
2023-03-24T06:05:26.696Z,14.00
2023-03-24T06:06:26.685Z,14.30
2023-03-24T06:07:26.984Z,13.70
2023-03-24T06:08:26.679Z,14.10
2023-03-24T06:09:26.684Z,14.40
2023-03-24T06:10:26.678Z,14.60
2023-03-24T06:11:26.681Z,14.80
2023-03-24T06:12:26.673Z,14.70
2023-03-24T06:13:26.773Z,14.50
2023-03-24T06:14:26.673Z,15.60
2023-03-24T06:15:26.711Z,15.50
2023-03-24T06:16:26.698Z,15.10
2023-03-24T06:17:26.719Z,15.00
2023-03-24T06:18:26.662Z,15.00
2023-03-24T06:19:26.665Z,15.10
2023-03-24T06:20:26.667Z,15.10
2023-03-24T06:21:26.665Z,14.70
2023-03-24T06:22:26.664Z,15.00
2023-03-24T06:23:26.662Z,14.80
2023-03-24T06:24:26.661Z,14.80
2023-03-24T06:25:26.673Z,14.70
2023-03-24T06:26:26.653Z,14.90
2023-03-24T06:27:26.661Z,14.70
2023-03-24T06:28:26.649Z,14.70
2023-03-24T06:29:26.674Z,14.30
2023-03-24T06:30:26.662Z,14.40
2023-03-24T06:31:26.719Z,13.90
2023-03-24T06:32:26.687Z,14.60
2023-03-24T06:33:26.649Z,14.90
2023-03-24T06:34:26.647Z,14.20
2023-03-24T06:35:26.659Z,13.70
2023-03-24T06:36:26.643Z,14.20
2023-03-24T06:37:26.646Z,13.90
2023-03-24T06:38:26.647Z,13.50
2023-03-24T06:39:26.637Z,14.00
2023-03-24T06:40:26.639Z,13.90
2023-03-24T06:41:26.637Z,13.90
2023-03-24T06:42:26.638Z,14.50
2023-03-24T06:43:26.642Z,14.00
2023-03-24T06:44:26.626Z,13.60
2023-03-24T06:45:26.661Z,13.40
2023-03-24T06:46:26.652Z,14.00
2023-03-24T06:47:26.701Z,13.90
2023-03-24T06:48:26.654Z,14.10
2023-03-24T06:49:26.638Z,13.90
2023-03-24T06:50:26.625Z,14.80
2023-03-24T06:51:26.624Z,14.80
2023-03-24T06:52:26.624Z,14.30
2023-03-24T06:53:26.623Z,14.30
2023-03-24T06:54:26.616Z,13.90
2023-03-24T06:55:26.622Z,14.30
2023-03-24T06:56:26.628Z,14.80
2023-03-24T06:57:26.619Z,13.90
2023-03-24T06:58:26.618Z,14.30
2023-03-24T06:59:26.613Z,14.60
2023-03-24T07:00:26.611Z,14.50
2023-03-24T07:01:26.699Z,14.80
2023-03-24T07:02:26.633Z,14.90
2023-03-24T07:03:26.702Z,14.40
2023-03-24T07:04:26.599Z,14.00
2023-03-24T07:05:26.613Z,14.50
2023-03-24T07:06:26.609Z,14.30
2023-03-24T07:07:53.351Z,14.20
2023-03-24T07:08:37.113Z,15.50
2023-03-24T07:09:26.601Z,14.40
2023-03-24T07:10:26.611Z,14.10
2023-03-24T07:11:26.602Z,14.70
2023-03-24T07:12:26.590Z,14.10
2023-03-24T07:13:26.595Z,13.80
2023-03-24T07:14:26.708Z,13.90
2023-03-24T07:15:26.604Z,13.80
2023-03-24T07:16:26.658Z,13.90
2023-03-24T07:17:26.713Z,13.80
2023-03-24T07:18:26.623Z,13.70
2023-03-24T07:19:26.590Z,13.80
2023-03-24T07:20:26.587Z,14.30
2023-03-24T07:21:26.588Z,13.80
2023-03-24T07:22:26.577Z,14.50
2023-03-24T07:23:26.585Z,14.30
2023-03-24T07:24:26.582Z,13.90
2023-03-24T07:25:26.616Z,14.40
2023-03-24T07:26:26.597Z,14.10
2023-03-24T07:27:26.592Z,14.60
2023-03-24T07:28:26.574Z,14.10
2023-03-24T07:29:26.573Z,14.50
2023-03-24T07:30:37.191Z,14.80
2023-03-24T07:31:26.646Z,14.40
2023-03-24T07:32:26.598Z,14.00
2023-03-24T07:33:26.617Z,14.10
2023-03-24T07:34:26.569Z,14.10
2023-03-24T07:35:26.568Z,14.80
2023-03-24T07:36:26.586Z,14.20
2023-03-24T07:37:26.569Z,14.50
2023-03-24T07:38:26.574Z,14.00
2023-03-24T07:39:26.570Z,13.90
2023-03-24T07:40:26.562Z,14.10
2023-03-24T07:41:26.570Z,14.20
2023-03-24T07:42:26.579Z,13.80
2023-03-24T07:43:26.558Z,14.60
2023-03-24T07:44:26.823Z,14.70
2023-03-24T07:45:26.605Z,14.30
2023-03-24T07:46:26.612Z,14.90
2023-03-24T07:47:28.154Z,14.30
2023-03-24T07:48:26.554Z,14.00
2023-03-24T07:49:26.582Z,14.40
2023-03-24T07:50:26.565Z,14.20
2023-03-24T07:51:26.555Z,14.00
2023-03-24T07:52:26.558Z,14.80
2023-03-24T07:53:26.560Z,14.40
2023-03-24T07:54:26.558Z,14.50
2023-03-24T07:55:26.564Z,14.80
2023-03-24T07:56:26.598Z,14.40
2023-03-24T07:57:26.559Z,14.80
2023-03-24T07:58:26.559Z,14.20
2023-03-24T07:59:26.829Z,14.00
2023-03-24T08:00:26.574Z,14.80
2023-03-24T08:01:26.553Z,13.90
2023-03-24T08:02:26.638Z,14.30
2023-03-24T08:03:26.742Z,14.20
2023-03-24T08:04:26.608Z,15.00
2023-03-24T08:05:26.577Z,14.60
2023-03-24T08:06:26.546Z,15.30
2023-03-24T08:07:26.549Z,16.30
2023-03-24T08:08:26.547Z,16.30
2023-03-24T08:09:26.551Z,16.50
2023-03-24T08:10:26.550Z,16.70
2023-03-24T08:11:26.547Z,16.40
2023-03-24T08:12:26.553Z,16.00
2023-03-24T08:13:26.545Z,16.00
2023-03-24T08:14:26.539Z,35.70
2023-03-24T08:15:26.545Z,37.20
2023-03-24T08:16:26.592Z,37.50
2023-03-24T08:17:26.554Z,34.10
2023-03-24T08:18:26.541Z,32.90
2023-03-24T08:19:26.548Z,38.20
2023-03-24T08:20:26.554Z,35.00
2023-03-24T08:21:26.576Z,37.40
2023-03-24T08:22:26.536Z,38.20
2023-03-24T08:23:26.545Z,39.80
2023-03-24T08:24:26.538Z,39.70
2023-03-24T08:25:26.538Z,39.70
2023-03-24T08:26:26.531Z,37.40
2023-03-24T08:27:26.534Z,39.00
2023-03-24T08:28:26.520Z,39.70
2023-03-24T08:29:26.530Z,40.10
2023-03-24T08:30:26.592Z,39.30
2023-03-24T08:31:26.561Z,39.60
2023-03-24T08:32:26.560Z,39.40
2023-03-24T08:33:26.536Z,40.50
2023-03-24T08:34:26.529Z,40.10
2023-03-24T08:35:26.523Z,40.40
2023-03-24T08:36:26.529Z,42.20
2023-03-24T08:37:26.596Z,40.60
2023-03-24T08:38:26.522Z,41.50
2023-03-24T08:39:26.522Z,39.30
2023-03-24T08:40:26.516Z,38.80
2023-03-24T08:41:26.523Z,37.30
2023-03-24T08:42:26.517Z,38.80
2023-03-24T08:43:26.519Z,38.60
2023-03-24T08:44:26.505Z,39.50
2023-03-24T08:45:26.526Z,38.30
2023-03-24T08:46:26.643Z,38.60
2023-03-24T08:47:26.574Z,39.10
2023-03-24T08:48:26.513Z,37.00
2023-03-24T08:49:26.504Z,39.80
2023-03-24T08:50:26.511Z,37.80
2023-03-24T08:51:26.504Z,39.30
2023-03-24T08:52:26.511Z,39.70
2023-03-24T08:53:26.517Z,40.10
2023-03-24T08:54:26.525Z,40.80
2023-03-24T08:55:26.506Z,40.70
2023-03-24T08:56:26.539Z,39.60
2023-03-24T08:57:26.497Z,40.00
2023-03-24T08:58:26.498Z,37.90
2023-03-24T08:59:26.493Z,38.90
2023-03-24T09:00:26.483Z,38.20
2023-03-24T09:01:26.521Z,38.70
2023-03-24T09:02:26.485Z,38.20
2023-03-24T09:03:26.490Z,38.90
2023-03-24T09:04:26.530Z,39.60
2023-03-24T09:05:37.148Z,40.10
2023-03-24T09:06:26.477Z,39.30
2023-03-24T09:07:26.481Z,38.40
2023-03-24T09:08:26.507Z,38.50
2023-03-24T09:09:26.502Z,39.70
2023-03-24T09:10:26.471Z,38.20
2023-03-24T09:11:26.469Z,38.60
2023-03-24T09:12:26.468Z,37.60
2023-03-24T09:13:26.480Z,38.50
2023-03-24T09:14:26.469Z,37.60
2023-03-24T09:15:26.468Z,39.10
2023-03-24T09:16:26.512Z,38.10
2023-03-24T09:17:26.524Z,37.50
2023-03-24T09:18:26.469Z,38.40
2023-03-24T09:19:26.464Z,37.10
2023-03-24T09:20:26.455Z,37.60
2023-03-24T09:21:26.458Z,37.50
2023-03-24T09:22:26.469Z,37.00
2023-03-24T09:23:26.453Z,37.70
2023-03-24T09:24:26.465Z,37.30
2023-03-24T09:25:26.489Z,35.50
2023-03-24T09:26:26.486Z,36.30
2023-03-24T09:27:26.472Z,35.10
2023-03-24T09:28:26.451Z,35.50
2023-03-24T09:29:26.449Z,36.10
2023-03-24T09:30:27.403Z,35.00
2023-03-24T09:31:26.476Z,34.70
2023-03-24T09:32:26.464Z,34.60
2023-03-24T09:33:26.452Z,36.30
2023-03-24T09:34:26.451Z,36.60
2023-03-24T09:35:26.448Z,37.00
2023-03-24T09:36:26.439Z,35.40
2023-03-24T09:37:26.442Z,35.20
2023-03-24T09:38:26.443Z,34.70
2023-03-24T09:39:26.440Z,34.50
2023-03-24T09:40:26.435Z,34.60
2023-03-24T09:41:26.459Z,35.30
2023-03-24T09:42:26.432Z,35.10
2023-03-24T09:43:26.438Z,34.50
2023-03-24T09:44:26.427Z,35.20
2023-03-24T09:45:26.437Z,33.90
2023-03-24T09:46:26.474Z,34.30
2023-03-24T09:47:26.488Z,34.30
2023-03-24T09:48:26.419Z,34.80
2023-03-24T09:49:26.421Z,34.00
2023-03-24T09:50:26.423Z,34.20
2023-03-24T09:51:26.424Z,33.50
2023-03-24T09:52:26.421Z,34.20
2023-03-24T09:53:26.415Z,33.20
2023-03-24T09:54:26.416Z,31.90
2023-03-24T09:55:26.420Z,33.10
2023-03-24T09:56:26.490Z,32.50
2023-03-24T09:57:26.429Z,31.80
2023-03-24T09:58:26.413Z,33.80
2023-03-24T09:59:26.410Z,31.30
2023-03-24T10:00:26.460Z,31.30
2023-03-24T10:01:26.497Z,30.10
2023-03-24T10:02:26.505Z,30.20
2023-03-24T10:03:26.473Z,29.80
2023-03-24T10:04:26.406Z,29.70
2023-03-24T10:05:26.412Z,30.40
2023-03-24T10:06:26.407Z,32.20
2023-03-24T10:07:26.400Z,31.20
2023-03-24T10:08:26.403Z,31.80
2023-03-24T10:09:26.399Z,31.80
2023-03-24T10:10:26.407Z,31.80
2023-03-24T10:11:26.401Z,31.70
2023-03-24T10:12:26.406Z,32.60
2023-03-24T10:13:26.424Z,33.20
2023-03-24T10:14:26.409Z,33.90
2023-03-24T10:15:37.226Z,32.30
2023-03-24T10:16:26.479Z,31.90
2023-03-24T10:17:26.429Z,32.40
2023-03-24T10:18:26.404Z,32.20
2023-03-24T10:19:26.399Z,32.20
2023-03-24T10:20:26.408Z,32.10
2023-03-24T10:21:26.393Z,31.40
2023-03-24T10:22:26.393Z,32.30
2023-03-24T10:23:26.404Z,32.70
2023-03-24T10:24:26.390Z,33.90
2023-03-24T10:25:26.389Z,33.40
2023-03-24T10:26:26.402Z,34.60
2023-03-24T10:27:26.393Z,32.90
2023-03-24T10:28:26.390Z,34.30
2023-03-24T10:29:26.414Z,34.90
2023-03-24T10:30:26.394Z,35.60
2023-03-24T10:31:26.426Z,33.80
2023-03-24T10:32:26.458Z,34.00
2023-03-24T10:33:26.392Z,34.60
2023-03-24T10:34:26.391Z,32.70
2023-03-24T10:35:26.382Z,34.60
2023-03-24T10:36:26.440Z,33.40
2023-03-24T10:37:26.391Z,32.40
2023-03-24T10:38:26.390Z,31.30
2023-03-24T10:39:37.866Z,31.40
2023-03-24T10:40:26.386Z,31.90
2023-03-24T10:41:26.378Z,30.70
2023-03-24T10:42:26.388Z,31.80
2023-03-24T10:43:26.389Z,33.30
2023-03-24T10:44:26.383Z,31.90
2023-03-24T10:45:26.482Z,32.90
2023-03-24T10:46:26.444Z,33.20
2023-03-24T10:47:26.422Z,32.50
2023-03-24T10:48:26.380Z,31.50
2023-03-24T10:49:26.377Z,33.60
2023-03-24T10:50:26.378Z,34.20
2023-03-24T10:51:26.380Z,32.90
2023-03-24T10:52:26.381Z,33.00
2023-03-24T10:53:26.373Z,33.20
2023-03-24T10:54:26.395Z,34.30
2023-03-24T10:55:26.374Z,32.30
2023-03-24T10:56:26.382Z,33.10
2023-03-24T10:57:26.376Z,32.90
2023-03-24T10:58:26.373Z,30.00
2023-03-24T10:59:26.378Z,31.50
2023-03-24T11:00:26.386Z,31.30
2023-03-24T11:01:26.447Z,31.00
2023-03-24T11:02:26.494Z,30.40
2023-03-24T11:03:26.378Z,26.60
2023-03-24T11:04:26.370Z,16.40
2023-03-24T11:05:26.363Z,15.80
2023-03-24T11:06:26.365Z,16.50
2023-03-24T11:07:26.378Z,16.20
2023-03-24T11:08:26.364Z,15.70
2023-03-24T11:09:26.363Z,15.80
2023-03-24T11:10:26.367Z,16.00
2023-03-24T11:11:26.362Z,16.30
2023-03-24T11:12:26.366Z,15.60
2023-03-24T11:13:26.360Z,16.20
2023-03-24T11:14:26.361Z,16.00
2023-03-24T11:15:26.352Z,14.90
2023-03-24T11:16:26.411Z,15.70
2023-03-24T11:17:26.411Z,16.00
2023-03-24T11:18:26.371Z,15.10
2023-03-24T11:19:26.356Z,15.50
2023-03-24T11:20:26.363Z,15.60
2023-03-24T11:21:26.360Z,15.40
2023-03-24T11:22:26.356Z,14.80
2023-03-24T11:23:26.354Z,15.90
2023-03-24T11:24:26.364Z,16.10
2023-03-24T11:25:26.354Z,15.90
2023-03-24T11:26:26.357Z,15.90
2023-03-24T11:27:26.355Z,17.10
2023-03-24T11:28:26.361Z,16.50
2023-03-24T11:29:26.355Z,15.80
2023-03-24T11:30:26.355Z,16.60
2023-03-24T11:31:26.367Z,16.10
2023-03-24T11:32:26.417Z,15.90
2023-03-24T11:33:34.867Z,15.80
2023-03-24T11:34:26.357Z,15.30
2023-03-24T11:35:35.434Z,16.10
2023-03-24T11:36:26.404Z,16.20
2023-03-24T11:37:26.352Z,16.10
2023-03-24T11:38:26.353Z,16.20
2023-03-24T11:39:26.365Z,16.30
2023-03-24T11:40:26.362Z,16.30
2023-03-24T11:41:26.348Z,15.90
2023-03-24T11:42:26.349Z,16.00
2023-03-24T11:43:26.358Z,15.80
2023-03-24T11:44:26.362Z,16.20
2023-03-24T11:45:26.368Z,16.00
2023-03-24T11:46:26.453Z,15.40
2023-03-24T11:47:26.379Z,15.50
2023-03-24T11:48:26.385Z,15.50
2023-03-24T11:49:26.389Z,16.50
2023-03-24T11:50:26.353Z,16.10
2023-03-24T11:51:26.369Z,16.10
2023-03-24T11:52:26.355Z,16.20
2023-03-24T11:53:26.347Z,15.90
2023-03-24T11:54:29.003Z,16.50
2023-03-24T11:55:26.346Z,16.00
2023-03-24T11:56:26.376Z,16.10
2023-03-24T11:57:26.354Z,15.30
2023-03-24T11:58:26.454Z,15.20
2023-03-24T11:59:26.351Z,14.90
2023-03-24T12:00:27.916Z,15.00
2023-03-24T12:01:26.356Z,15.00
2023-03-24T12:02:26.426Z,15.00
2023-03-24T12:03:26.558Z,15.40
2023-03-24T12:04:26.363Z,15.20
2023-03-24T12:05:26.431Z,15.00
2023-03-24T12:06:26.394Z,14.80
2023-03-24T12:07:26.368Z,15.00
2023-03-24T12:08:26.416Z,15.10
2023-03-24T12:09:26.358Z,15.00
2023-03-24T12:10:26.360Z,14.90
2023-03-24T12:11:26.355Z,15.20
2023-03-24T12:12:26.360Z,14.90
2023-03-24T12:13:32.777Z,14.70
2023-03-24T12:14:26.358Z,14.90
2023-03-24T12:15:28.597Z,14.80
2023-03-24T12:16:26.393Z,15.20
2023-03-24T12:17:26.383Z,15.30
2023-03-24T12:18:26.373Z,15.10
2023-03-24T12:19:26.357Z,14.90
2023-03-24T12:20:26.358Z,14.90
2023-03-24T12:21:26.379Z,14.60
2023-03-24T12:22:26.370Z,14.20
2023-03-24T12:23:26.360Z,13.80
2023-03-24T12:24:26.366Z,14.30
2023-03-24T12:25:26.363Z,14.00
2023-03-24T12:26:26.363Z,14.30
2023-03-24T12:27:26.365Z,13.40
2023-03-24T12:28:26.380Z,13.20
2023-03-24T12:29:26.357Z,13.30
2023-03-24T12:30:26.367Z,13.30
2023-03-24T12:31:26.416Z,13.60
2023-03-24T12:32:26.428Z,12.70
2023-03-24T12:33:26.365Z,13.10
2023-03-24T12:34:26.363Z,12.80
2023-03-24T12:35:26.375Z,12.60
2023-03-24T12:36:26.366Z,12.30
2023-03-24T12:37:26.392Z,12.70
2023-03-24T12:38:26.368Z,12.60
2023-03-24T12:39:26.359Z,12.90
2023-03-24T12:40:26.550Z,12.80
2023-03-24T12:41:26.366Z,12.20
2023-03-24T12:42:26.372Z,11.40
2023-03-24T12:43:26.361Z,11.80
2023-03-24T12:44:26.363Z,11.80
2023-03-24T12:45:26.491Z,12.20
2023-03-24T12:46:31.570Z,12.50
2023-03-24T12:47:26.390Z,12.20
2023-03-24T12:48:26.364Z,12.10
2023-03-24T12:49:26.377Z,12.10
2023-03-24T12:50:26.365Z,11.90
2023-03-24T12:51:26.356Z,11.70
2023-03-24T12:52:26.364Z,11.50